This is the latest recevied weather packets stored in our database for station/object SP1BMW-13. If no packets are shown the sender has not sent any weather packets the latest 10 day(s).
| Time | Temp. | Humidity | Pressure | Rain* | Wind** | Luminosity | Snow |
|---|---|---|---|---|---|---|---|
| 1778262361 | 12.78° C | 52% | 1019.4 hPa | 0 mm | 0.89 m/s, 302° | 29 W/m² | - |
| 1778262301 | 12.78° C | 52% | 1019.2 hPa | 0 mm | 0.45 m/s, 298° | 28 W/m² | - |
| 1778262241 | 12.78° C | 51% | 1019.2 hPa | 0 mm | 1.79 m/s, 340° | 28 W/m² | - |
| 1778262181 | 13.33° C | 52% | 1019.3 hPa | 0 mm | 0.89 m/s, 273° | 28 W/m² | - |
| 1778262121 | 13.33° C | 54% | 1019.3 hPa | 0 mm | 0 m/s | 29 W/m² | - |
| 1778262061 | 13.33° C | 52% | 1019.2 hPa | 0 mm | 0.89 m/s, 335° | 29 W/m² | - |
| 1778262001 | 13.33° C | 51% | 1019.4 hPa | 0 mm | 0.89 m/s, 19° | 29 W/m² | - |
| 1778261941 | 13.33° C | 53% | 1019.1 hPa | 0 mm | 0.45 m/s, 326° | 29 W/m² | - |
| 1778261881 | 13.33° C | 52% | 1019.1 hPa | 0 mm | 0.45 m/s, 296° | 30 W/m² | - |
| 1778261821 | 13.33° C | 52% | 1019.3 hPa | 0 mm | 0 m/s | 30 W/m² | - |
| 1778261761 | 13.33° C | 52% | 1019.3 hPa | 0 mm | 0.45 m/s, 295° | 31 W/m² | - |
| 1778261701 | 13.33° C | 52% | 1019.3 hPa | 0 mm | 0.45 m/s, 316° | 31 W/m² | - |
| 1778261641 | 13.33° C | 53% | 1019.3 hPa | 0 mm | 0 m/s | 30 W/m² | - |
| 1778261581 | 13.33° C | 52% | 1019.3 hPa | 0 mm | 0.45 m/s, 324° | 30 W/m² | - |
| 1778261521 | 13.33° C | 51% | 1019.3 hPa | 0 mm | 0.45 m/s, 19° | 29 W/m² | - |
| 1778261461 | 13.33° C | 52% | 1019.3 hPa | 0 mm | 0.45 m/s, 304° | 29 W/m² | - |
| 1778261401 | 13.33° C | 52% | 1019.3 hPa | 0 mm | 0.45 m/s, 326° | 28 W/m² | - |
| 1778261341 | 13.33° C | 52% | 1019.3 hPa | 0 mm | 0.45 m/s, 347° | 28 W/m² | - |
| 1778261281 | 13.33° C | 53% | 1019.2 hPa | 0 mm | 0 m/s | 28 W/m² | - |
| 1778261221 | 13.33° C | 52% | 1019.4 hPa | 0 mm | 0.45 m/s, 352° | 28 W/m² | - |
| 1778261161 | 13.33° C | 53% | 1019.2 hPa | 0 mm | 0 m/s | 28 W/m² | - |
| 1778261101 | 13.33° C | 52% | 1019.3 hPa | 0 mm | 0 m/s | 28 W/m² | - |
| 1778261041 | 13.33° C | 51% | 1019.2 hPa | 0 mm | 0 m/s | 28 W/m² | - |
| 1778260980 | 13.33° C | 51% | 1019.3 hPa | 0 mm | 0 m/s | 29 W/m² | - |
| 1778260921 | 13.33° C | 51% | 1019.2 hPa | 0 mm | 0.45 m/s, 353° | 29 W/m² | - |
* Rain latest hour (hover to see other rain measurements)
** Current wind speed in m/s (hover to see current wind gust speed)